Startpagina
METAR-TAF:

METAR-TAF

Vliegvelden :

Anchorage, Alaska, Verenigde Staten

breedte: 61-13N, lengte: 149-51W, hoogte: 42 m

Actueel weer

Dit bericht is 24 minuten geleden gemaakt, om 00:53 UTC
Wind 4 kt uit het zuiden
Temperatuur -1°C
Vochtigheid 69%
Druk 996 hPa
Zicht: 16.1 km
Gebroken wolken op 3500 ft
Gebroken wolken op 4700 ft
Geheel bewolkt op 5500 ft

METAR: PAMR 200053Z 18004KT 10SM BKN035 BKN047 OVC055 M01/M06 A2941 RMK AO2 SNB25E34 SLP961 P0000 T10111056

Tijdstip: 16:17 (01:17 UTC)


TAF: ontbreekt

Waarnemingen en weersverwachtingen van meer dan 4000 vliegvelden (METAR en TAF).

De beschikbare stations zijn de gele en rode punten op de kaart.

Ga met uw muis naar het station om de naam te zien.

Klik dan om waarnemingen en weersverwachtingen te zien.

kaart wijzigen: klik op de groene knoppen met een zwart kruis om in te zoomen, op de groene knop met een streepje om uit te zoomen of op de groene pijlen voor aangrenzende kaarten.


METAR-TAF: